Time;durP1;ratioP1;P1;durP2;ratioP2;P2;SDS_P1;SDS_P2;PMS_P1;PMS_P2;Temp;Humidity;BMP_temperature;BMP_pressure;BME280_temperature;BME280_humidity;BME280_pressure;Samples;Min_cycle;Max_cycle;Signal;HPM_P1;HPM_P2
2023/04/22 04:30:32;;;;;;;12.45;7.22;;;12.50;57.80;;;;;;5783293;23;20057;-77
2023/04/22 04:32:57;;;;;;;11.65;6.85;;;12.50;58.60;;;;;;4880817;29;20029;-77
2023/04/22 04:35:23;;;;;;;12.27;7.85;;;12.40;58.60;;;;;;4882370;29;20040;-77
2023/04/22 04:37:49;;;;;;;12.32;7.43;;;12.40;59.30;;;;;;4884571;29;20029;-77
2023/04/22 04:40:15;;;;;;;11.82;7.72;;;12.40;57.20;;;;;;4885010;29;20044;-77
2023/04/22 04:42:41;;;;;;;11.73;7.55;;;12.40;58.10;;;;;;4886697;29;20040;-77
2023/04/22 04:45:08;;;;;;;12.43;8.10;;;12.40;57.60;;;;;;4884334;29;20117;-77
2023/04/22 04:47:34;;;;;;;11.27;7.40;;;12.40;57.70;;;;;;4884403;29;20401;-77
2023/04/22 04:50:00;;;;;;;17.13;8.07;;;12.50;57.60;;;;;;4884297;29;20025;-77
2023/04/22 04:52:25;;;;;;;15.05;8.57;;;12.40;57.90;;;;;;4885023;29;20029;-77
2023/04/22 04:54:51;;;;;;;12.65;7.65;;;12.40;57.80;;;;;;4884647;29;20024;-77
2023/04/22 04:57:17;;;;;;;11.05;7.18;;;12.30;59.40;;;;;;4884373;29;20025;-77
2023/04/22 04:59:42;;;;;;;10.75;6.97;;;12.30;59.30;;;;;;4879814;29;20022;-77
2023/04/22 05:02:08;;;;;;;11.80;7.70;;;12.30;59.50;;;;;;4874927;29;20074;-77
2023/04/22 05:04:33;;;;;;;12.40;7.25;;;12.30;59.90;;;;;;4880709;29;20029;-76
2023/04/22 05:06:59;;;;;;;10.82;7.15;;;12.30;59.80;;;;;;4882187;29;20060;-77
2023/04/22 05:09:25;;;;;;;10.57;7.20;;;12.30;59.00;;;;;;4900432;29;20061;-77
2023/04/22 05:11:50;;;;;;;13.35;7.85;;;12.30;59.40;;;;;;4883452;29;20037;-77
2023/04/22 05:14:16;;;;;;;11.95;7.95;;;12.30;59.10;;;;;;4880129;29;20025;-77
2023/04/22 05:16:42;;;;;;;11.68;7.68;;;12.30;59.00;;;;;;4865999;29;20029;-77
2023/04/22 05:19:07;;;;;;;12.40;7.18;;;12.30;58.20;;;;;;4882128;29;20064;-77
2023/04/22 05:21:33;;;;;;;13.25;8.27;;;12.30;58.30;;;;;;4884595;29;20041;-77
2023/04/22 05:23:58;;;;;;;11.57;6.95;;;12.30;58.20;;;;;;4883962;29;20029;-77
2023/04/22 05:26:24;;;;;;;18.25;10.63;;;12.30;58.80;;;;;;4884462;29;20029;-77
2023/04/22 05:28:50;;;;;;;11.32;7.38;;;12.30;58.00;;;;;;4871397;29;20030;-77
2023/04/22 05:31:16;;;;;;;14.75;9.75;;;12.30;58.10;;;;;;4865617;29;20056;-77
2023/04/22 05:33:41;;;;;;;13.30;8.20;;;12.30;58.60;;;;;;4875698;29;20041;-77
2023/04/22 05:36:07;;;;;;;13.70;7.70;;;12.30;59.20;;;;;;4882435;29;20085;-77
2023/04/22 05:38:32;;;;;;;10.68;7.82;;;12.30;58.30;;;;;;4883775;29;20037;-77
2023/04/22 05:40:58;;;;;;;14.93;8.30;;;12.30;58.90;;;;;;4884216;29;20029;-77
2023/04/22 05:43:24;;;;;;;12.93;7.80;;;12.40;58.40;;;;;;4884131;29;20095;-77
2023/04/22 05:45:49;;;;;;;11.88;7.63;;;12.40;58.40;;;;;;4883681;29;20092;-77
2023/04/22 05:48:15;;;;;;;15.60;8.73;;;12.50;58.10;;;;;;4867252;29;20060;-77
2023/04/22 05:50:40;;;;;;;12.00;7.70;;;12.50;58.30;;;;;;4883594;29;20540;-77
2023/04/22 05:53:06;;;;;;;12.68;9.35;;;12.60;58.00;;;;;;4883987;29;20045;-77
2023/04/22 05:55:32;;;;;;;17.75;10.82;;;12.60;58.30;;;;;;4883474;29;20112;-77
2023/04/22 05:57:57;;;;;;;20.48;12.10;;;12.70;58.10;;;;;;4883834;29;20495;-84
2023/04/22 06:00:23;;;;;;;17.38;10.50;;;12.80;58.60;;;;;;4867106;29;20041;-81
2023/04/22 06:02:49;;;;;;;15.82;10.05;;;12.80;58.50;;;;;;4866530;29;20120;-79
2023/04/22 06:05:14;;;;;;;11.80;7.45;;;12.80;57.80;;;;;;4883739;29;20040;-79
2023/04/22 06:07:40;;;;;;;15.82;9.20;;;12.90;57.80;;;;;;4883835;29;20025;-79
2023/04/22 06:10:07;;;;;;;14.05;8.45;;;12.90;58.20;;;;;;4883016;29;20036;-80
2023/04/22 06:12:33;;;;;;;12.20;7.18;;;12.90;57.90;;;;;;4883653;29;20080;-85
2023/04/22 06:14:59;;;;;;;12.70;7.88;;;12.90;58.00;;;;;;4866800;29;20025;-81
2023/04/22 06:17:25;;;;;;;13.68;8.80;;;12.90;58.30;;;;;;4883510;29;20049;-81
2023/04/22 06:19:50;;;;;;;12.95;9.02;;;13.00;57.70;;;;;;4883132;29;20445;-82
2023/04/22 06:22:16;;;;;;;15.00;9.32;;;13.00;57.80;;;;;;4873820;29;20028;-81
2023/04/22 06:24:42;;;;;;;14.18;7.72;;;13.00;57.70;;;;;;4879613;29;20033;-79
2023/04/22 06:27:07;;;;;;;14.80;9.48;;;13.00;57.80;;;;;;4874702;29;20030;-78
2023/04/22 06:29:33;;;;;;;14.32;9.80;;;13.00;58.00;;;;;;4864982;29;20077;-80
2023/04/22 06:31:58;;;;;;;11.90;7.88;;;13.00;58.10;;;;;;4874206;29;20060;-78
2023/04/22 06:34:24;;;;;;;13.93;9.10;;;13.00;57.80;;;;;;4901798;29;20032;-78
2023/04/22 06:36:50;;;;;;;14.38;8.63;;;13.10;58.10;;;;;;4900719;29;20061;-78
2023/04/22 06:39:16;;;;;;;12.93;8.43;;;13.20;57.60;;;;;;4889161;29;20064;-78
2023/04/22 06:41:43;;;;;;;12.25;7.97;;;13.20;57.40;;;;;;4900199;29;20068;-79
2023/04/22 06:44:08;;;;;;;13.38;8.50;;;13.20;57.50;;;;;;4899219;29;20068;-79
2023/04/22 06:46:34;;;;;;;14.55;8.60;;;13.10;58.00;;;;;;4898709;29;20023;-78
2023/04/22 06:49:00;;;;;;;19.38;12.68;;;13.10;57.40;;;;;;4881316;29;20393;-77
2023/04/22 06:51:26;;;;;;;12.02;7.93;;;13.10;57.60;;;;;;4900665;29;20028;-78
2023/04/22 06:53:51;;;;;;;15.63;10.52;;;13.10;57.40;;;;;;4901328;29;20499;-78
2023/04/22 06:56:17;;;;;;;12.93;8.65;;;13.20;57.00;;;;;;4900903;29;20093;-79
2023/04/22 06:58:43;;;;;;;14.95;8.43;;;13.20;57.10;;;;;;4899865;29;20046;-77
2023/04/22 07:01:08;;;;;;;14.05;8.00;;;13.30;57.00;;;;;;4888856;29;20100;-77
2023/04/22 07:03:34;;;;;;;11.98;7.47;;;13.40;57.00;;;;;;4883205;29;20150;-78
2023/04/22 07:06:00;;;;;;;58.75;29.52;;;13.50;56.20;;;;;;4896910;29;20028;-83
2023/04/22 07:08:25;;;;;;;17.60;10.55;;;13.60;56.20;;;;;;4902607;29;20095;-78
2023/04/22 07:10:51;;;;;;;13.15;7.82;;;13.60;56.30;;;;;;4901401;29;20108;-79
2023/04/22 07:13:17;;;;;;;12.23;7.97;;;13.60;56.80;;;;;;4899128;29;20210;-79
2023/04/22 07:15:44;;;;;;;13.93;7.70;;;13.60;56.10;;;;;;4907599;29;20032;-79
2023/04/22 07:18:11;;;;;;;11.80;7.47;;;13.60;56.00;;;;;;4918990;29;20036;-78
2023/04/22 07:20:36;;;;;;;12.20;7.22;;;13.60;55.60;;;;;;4902538;29;20064;-77
2023/04/22 07:23:02;;;;;;;12.43;8.77;;;13.60;55.40;;;;;;4899901;29;20044;-78
2023/04/22 07:25:28;;;;;;;11.57;7.57;;;13.50;55.40;;;;;;4915625;29;20061;-78
2023/04/22 07:27:53;;;;;;;11.93;7.30;;;13.50;55.40;;;;;;4899803;29;20059;-78
2023/04/22 07:30:19;;;;;;;10.95;7.28;;;13.50;55.60;;;;;;4898673;29;20020;-78
2023/04/22 07:32:44;;;;;;;11.23;7.35;;;13.60;56.30;;;;;;4879364;29;20036;-78
2023/04/22 07:35:10;;;;;;;10.75;6.50;;;13.60;56.50;;;;;;4882132;29;20028;-78
2023/04/22 07:37:36;;;;;;;11.10;7.13;;;13.60;55.90;;;;;;4865108;29;20127;-78
2023/04/22 07:40:01;;;;;;;11.02;7.40;;;13.60;55.30;;;;;;4882067;29;20027;-79
2023/04/22 07:42:27;;;;;;;10.50;6.45;;;13.70;54.90;;;;;;4865425;29;20085;-78
2023/04/22 07:44:53;;;;;;;10.73;6.93;;;13.70;55.30;;;;;;4881502;29;20123;-77
2023/04/22 07:47:18;;;;;;;11.18;7.35;;;13.70;55.20;;;;;;4865537;29;20476;-78
2023/04/22 07:49:44;;;;;;;11.30;7.82;;;13.60;55.20;;;;;;4881411;29;20041;-78
2023/04/22 07:52:10;;;;;;;11.38;8.00;;;13.60;55.30;;;;;;4865099;29;20028;-77
2023/04/22 07:54:35;;;;;;;10.70;7.35;;;13.70;55.20;;;;;;4881320;29;20524;-77
2023/04/22 07:57:01;;;;;;;11.10;7.38;;;14.00;56.00;;;;;;4882054;29;20426;-78
2023/04/22 07:59:27;;;;;;;12.18;6.93;;;14.20;55.20;;;;;;4849343;29;20037;-78
2023/04/22 08:01:53;;;;;;;11.07;7.88;;;14.30;55.60;;;;;;4862152;29;20105;-78
2023/04/22 08:04:21;;;;;;;9.98;6.88;;;14.40;53.70;;;;;;4864788;29;20036;-78
2023/04/22 08:06:47;;;;;;;13.18;7.65;;;15.10;51.80;;;;;;4881986;29;20025;-78
2023/04/22 08:09:12;;;;;;;9.90;7.63;;;15.80;50.40;;;;;;4858501;29;20509;-78
2023/04/22 08:11:38;;;;;;;7.10;5.95;;;17.20;48.40;;;;;;4875435;29;20388;-78
2023/04/22 08:14:04;;;;;;;7.38;5.53;;;19.50;44.20;;;;;;4864921;29;20037;-77
2023/04/22 08:16:29;;;;;;;8.32;5.53;;;22.10;38.80;;;;;;4846657;29;20040;-77
2023/04/22 08:18:56;;;;;;;6.88;5.30;;;24.50;34.90;;;;;;4863296;29;20069;-77
2023/04/22 08:21:22;;;;;;;6.70;5.60;;;25.30;33.20;;;;;;4846958;29;20033;-77
2023/04/22 08:23:48;;;;;;;6.28;5.30;;;26.60;30.90;;;;;;4863308;29;20044;-78
2023/04/22 08:26:15;;;;;;;7.10;5.80;;;27.30;29.00;;;;;;4846370;29;20389;-78
2023/04/22 08:28:41;;;;;;;7.82;5.93;;;28.10;28.70;;;;;;4863554;29;20370;-77
2023/04/22 08:31:09;;;;;;;7.05;5.32;;;28.60;26.80;;;;;;4865030;29;20045;-77
2023/04/22 08:33:34;;;;;;;6.18;5.57;;;29.00;26.40;;;;;;4881654;29;20035;-77
2023/04/22 08:36:02;;;;;;;11.45;6.72;;;29.60;26.40;;;;;;4881653;29;20108;-77
2023/04/22 08:38:28;;;;;;;6.80;6.10;;;30.20;25.80;;;;;;4864357;29;20033;-77
2023/04/22 08:40:57;;;;;;;7.18;6.07;;;30.30;26.10;;;;;;4864720;29;20549;-77
2023/04/22 08:43:25;;;;;;;7.20;6.35;;;29.90;25.60;;;;;;4883895;29;20037;-77
2023/04/22 08:45:52;;;;;;;8.82;6.68;;;28.80;26.10;;;;;;4881243;29;20025;-77
2023/04/22 08:48:18;;;;;;;8.13;7.28;;;27.30;28.00;;;;;;4881612;29;20041;-77
2023/04/22 08:50:46;;;;;;;6.55;5.90;;;26.00;29.60;;;;;;4881062;29;20543;-77
2023/04/22 08:53:12;;;;;;;8.88;6.47;;;26.30;30.50;;;;;;4864516;29;20037;-77
2023/04/22 08:55:42;;;;;;;7.60;6.30;;;26.80;29.90;;;;;;4881515;29;20618;-77
2023/04/22 08:58:10;;;;;;;6.68;5.20;;;27.80;29.10;;;;;;4864922;29;20033;-77
2023/04/22 09:00:37;;;;;;;7.80;6.40;;;28.50;27.70;;;;;;4864720;29;20025;-77
2023/04/22 09:03:05;;;;;;;8.07;6.07;;;28.70;27.50;;;;;;4883281;29;20032;-75
2023/04/22 09:05:33;;;;;;;7.70;6.30;;;29.10;26.40;;;;;;4881297;29;20052;-77
2023/04/22 09:07:58;;;;;;;6.75;6.10;;;29.70;26.80;;;;;;4874926;29;20026;-77
2023/04/22 09:10:25;;;;;;;6.50;5.80;;;28.90;26.30;;;;;;4865688;29;20028;-77
2023/04/22 09:12:51;;;;;;;7.93;6.28;;;27.70;27.70;;;;;;4884923;29;20025;-78
2023/04/22 09:15:16;;;;;;;7.88;6.78;;;26.30;29.30;;;;;;4884721;29;20029;-78
2023/04/22 09:17:42;;;;;;;9.18;6.68;;;25.40;30.50;;;;;;4884176;29;20021;-77
2023/04/22 09:20:11;;;;;;;8.88;6.50;;;26.20;30.50;;;;;;4884561;29;20029;-76
2023/04/22 09:22:47;;;;;;;9.38;7.03;;;26.30;30.20;;;;;;4882490;29;20021;-76
2023/04/22 09:25:22;;;;;;;7.40;6.25;;;27.50;29.00;;;;;;4891880;29;20029;-78
2023/04/22 09:27:51;;;;;;;7.35;6.43;;;28.30;28.40;;;;;;4886621;29;20029;-75
2023/04/22 09:30:22;;;;;;;6.95;6.00;;;28.80;27.50;;;;;;4864061;29;20409;-76
2023/04/22 09:32:53;;;;;;;8.73;5.80;;;29.20;27.20;;;;;;4867765;29;20033;-75
2023/04/22 09:35:36;;;;;;;7.80;6.00;;;29.40;26.40;;;;;;4883695;29;20485;-76
2023/04/22 09:38:06;;;;;;;9.00;6.60;;;29.20;26.80;;;;;;4884345;29;20037;-76
2023/04/22 09:40:33;;;;;;;7.88;5.30;;;29.40;27.10;;;;;;4884254;29;20029;-76
2023/04/22 09:43:02;;;;;;;7.15;6.25;;;28.80;27.70;;;;;;4875196;29;20021;-76
2023/04/22 09:45:35;;;;;;;8.00;6.13;;;29.40;26.50;;;;;;4865453;29;20073;-76
2023/04/22 09:48:13;;;;;;;6.63;5.95;;;29.70;26.70;;;;;;4848960;29;20470;-75
2023/04/22 09:50:47;;;;;;;8.65;5.60;;;30.00;27.10;;;;;;4849458;29;20033;-76
2023/04/22 09:53:15;;;;;;;7.03;6.00;;;29.80;25.70;;;;;;4848685;29;20454;-75
2023/04/22 09:55:46;;;;;;;7.40;6.18;;;29.30;26.50;;;;;;4865480;29;20033;-75
2023/04/22 09:58:17;;;;;;;7.55;5.30;;;29.70;27.00;;;;;;4848718;29;20037;-75
2023/04/22 10:00:54;;;;;;;6.45;5.03;;;29.80;26.50;;;;;;4848496;29;20040;-75
2023/04/22 10:03:20;;;;;;;5.50;4.53;;;29.10;27.50;;;;;;4848674;29;20703;-75
2023/04/22 10:05:46;;;;;;;6.15;4.38;;;28.80;27.50;;;;;;4861056;29;20078;-75
2023/04/22 10:08:14;;;;;;;5.40;4.20;;;28.30;28.40;;;;;;4876519;29;20865;-75
2023/04/22 10:10:40;;;;;;;6.45;4.38;;;27.60;29.40;;;;;;4869489;29;20017;-75
2023/04/22 10:13:06;;;;;;;8.07;4.63;;;27.20;29.60;;;;;;4854175;29;20165;-75
2023/04/22 10:15:56;;;;;;;6.25;5.10;;;27.10;30.30;;;;;;4848356;29;20042;-75
2023/04/22 10:18:24;;;;;;;5.90;3.97;;;26.40;31.20;;;;;;4882034;29;20402;-75
2023/04/22 10:20:52;;;;;;;5.07;4.00;;;26.10;31.10;;;;;;4883482;29;20041;-75
2023/04/22 10:23:19;;;;;;;4.53;3.15;;;25.90;31.80;;;;;;4883487;29;20036;-75
2023/04/22 10:25:55;;;;;;;4.00;3.33;;;25.30;32.00;;;;;;4854155;29;20033;-75
2023/04/22 10:28:22;;;;;;;5.72;3.53;;;24.70;33.90;;;;;;4863570;29;20040;-76
2023/04/22 10:30:49;;;;;;;5.18;3.67;;;23.80;34.30;;;;;;4882982;29;20453;-76
2023/04/22 10:33:22;;;;;;;4.32;2.97;;;23.30;35.90;;;;;;4872213;29;20127;-77
2023/04/22 10:36:09;;;;;;;4.75;3.50;;;22.80;36.80;;;;;;4869505;29;20041;-76
2023/04/22 10:38:58;;;;;;;4.45;3.33;;;22.50;37.90;;;;;;4864783;29;20040;-77
2023/04/22 10:41:33;;;;;;;8.13;3.53;;;22.30;38.50;;;;;;4847476;29;20076;-84
2023/04/22 10:44:05;;;;;;;5.05;3.00;;;21.90;39.20;;;;;;4864823;29;20397;-80
2023/04/22 10:46:36;;;;;;;6.55;3.15;;;21.80;39.60;;;;;;4882805;29;20060;-76
2023/04/22 10:49:17;;;;;;;4.25;3.05;;;21.70;39.90;;;;;;4882916;29;20032;-80
2023/04/22 10:52:02;;;;;;;6.45;3.42;;;21.70;41.40;;;;;;4885242;29;20458;-79
2023/04/22 10:54:30;;;;;;;6.00;2.40;;;21.40;40.90;;;;;;4868406;29;20032;-78
2023/04/22 10:57:03;;;;;;;4.70;2.55;;;21.40;40.90;;;;;;4884910;29;20029;-81
2023/04/22 10:59:29;;;;;;;5.32;2.90;;;21.20;41.00;;;;;;4882538;29;20122;-80
2023/04/22 11:02:06;;;;;;;7.03;2.72;;;21.20;40.90;;;;;;4882793;29;20057;-82
2023/04/22 11:04:32;;;;;;;4.38;2.63;;;21.10;41.80;;;;;;4882277;29;20749;-81
2023/04/22 11:07:30;;;;;;;4.90;2.83;;;20.90;41.20;;;;;;4882680;29;20040;-78
2023/04/22 11:10:06;;;;;;;4.45;2.42;;;20.90;42.70;;;;;;4899279;29;20021;-79
2023/04/22 11:12:37;;;;;;;4.45;2.00;;;21.10;42.20;;;;;;4864150;29;20029;-79
2023/04/22 11:15:07;;;;;;;2.95;1.98;;;21.00;41.90;;;;;;4880189;29;20480;-81
2023/04/22 11:17:33;;;;;;;2.83;2.03;;;20.80;41.00;;;;;;4875416;29;20024;-81
2023/04/22 11:19:59;;;;;;;5.20;1.92;;;21.00;41.40;;;;;;4884530;29;20322;-81
2023/04/22 11:22:26;;;;;;;3.65;1.70;;;20.90;42.00;;;;;;4876963;29;20547;-83
2023/04/22 11:25:01;;;;;;;6.25;1.80;;;20.90;41.90;;;;;;4882374;29;20490;-82
2023/04/22 11:27:29;;;;;;;3.08;1.75;;;20.80;41.90;;;;;;4865540;29;20051;-84
2023/04/22 11:30:17;;;;;;;4.57;1.73;;;20.80;42.70;;;;;;4865820;29;20025;-77
2023/04/22 11:32:45;;;;;;;3.05;1.70;;;20.80;41.90;;;;;;4897554;29;20044;-75
2023/04/22 11:35:17;;;;;;;4.07;1.40;;;20.80;42.70;;;;;;4899366;29;20036;-77
2023/04/22 11:37:46;;;;;;;2.50;1.48;;;21.10;43.30;;;;;;4901016;29;20370;-81
2023/04/22 11:40:15;;;;;;;3.03;1.30;;;21.30;43.30;;;;;;4900727;29;20029;-81
2023/04/22 11:42:41;;;;;;;4.40;1.10;;;21.50;42.60;;;;;;4899909;29;20036;-81
2023/04/22 11:45:07;;;;;;;7.80;1.52;;;21.60;41.30;;;;;;4914745;29;20035;-85
2023/04/22 11:47:34;;;;;;;3.17;1.23;;;21.60;42.30;;;;;;4897768;29;20044;-82
2023/04/22 11:50:03;;;;;;;2.83;1.13;;;21.60;41.90;;;;;;4895196;29;20032;-89
2023/04/22 11:52:47;;;;;;;7.13;1.52;;;21.50;41.50;;;;;;4890891;29;20029;-90
2023/04/22 11:55:15;;;;;;;3.85;1.20;;;21.30;41.30;;;;;;4895542;29;20036;-89
2023/04/22 11:57:41;;;;;;;2.78;1.30;;;21.10;42.00;;;;;;4889918;29;20077;-89
2023/04/22 12:00:11;;;;;;;3.83;1.55;;;20.90;42.10;;;;;;4891464;29;20017;-83
2023/04/22 12:02:37;;;;;;;2.33;1.20;;;20.70;43.00;;;;;;4888674;29;20018;-83
2023/04/22 12:05:02;;;;;;;5.43;1.35;;;20.60;43.70;;;;;;4889524;29;20550;-83
2023/04/22 12:07:28;;;;;;;3.83;1.23;;;20.40;43.30;;;;;;4890688;29;20028;-84
2023/04/22 12:09:54;;;;;;;2.72;1.15;;;20.30;43.70;;;;;;4897550;29;20645;-84
2023/04/22 12:12:27;;;;;;;3.28;1.15;;;20.40;44.60;;;;;;4889602;29;20037;-84
2023/04/22 12:14:53;;;;;;;6.88;2.08;;;20.70;44.10;;;;;;4891195;29;20056;-85
2023/04/22 12:17:24;;;;;;;3.22;1.30;;;20.90;43.20;;;;;;4890824;29;20437;-84
2023/04/22 12:19:54;;;;;;;3.85;1.15;;;21.10;43.30;;;;;;4891138;29;20056;-84
2023/04/22 12:22:27;;;;;;;3.17;1.25;;;21.00;43.00;;;;;;4890138;29;20025;-84
2023/04/22 12:24:53;;;;;;;3.05;1.15;;;21.00;43.20;;;;;;4888819;29;20030;-86
2023/04/22 12:27:20;;;;;;;5.43;1.20;;;21.10;43.30;;;;;;4895496;29;20035;-86
2023/04/22 12:29:54;;;;;;;4.28;1.27;;;21.20;43.10;;;;;;4889974;29;20024;-86
2023/04/22 12:32:21;;;;;;;4.40;1.23;;;21.20;43.60;;;;;;4874209;29;20061;-84
2023/04/22 12:34:47;;;;;;;3.20;1.17;;;21.10;43.90;;;;;;4875640;29;20053;-86
2023/04/22 12:37:13;;;;;;;4.40;1.30;;;21.00;44.30;;;;;;4870124;29;20037;-85
2023/04/22 12:39:39;;;;;;;4.57;1.08;;;20.90;44.50;;;;;;4857286;29;20481;-85
2023/04/22 12:42:05;;;;;;;3.97;1.33;;;20.90;44.90;;;;;;4868534;29;20033;-83
2023/04/22 12:44:32;;;;;;;6.40;0.95;;;20.80;43.50;;;;;;4862043;29;20164;-81
2023/04/22 12:46:58;;;;;;;3.80;1.02;;;20.70;44.00;;;;;;4882571;29;20536;-77
2023/04/22 12:49:24;;;;;;;5.13;1.10;;;20.50;45.10;;;;;;4883552;29;20168;-81
2023/04/22 12:51:51;;;;;;;4.88;1.27;;;20.20;45.80;;;;;;4885024;29;20025;-82
2023/04/22 12:54:20;;;;;;;2.22;1.10;;;20.00;46.40;;;;;;4868568;29;20033;-81
2023/04/22 12:56:46;;;;;;;3.47;0.93;;;19.80;47.40;;;;;;4884894;29;20021;-81
2023/04/22 12:59:12;;;;;;;3.03;0.95;;;19.80;47.50;;;;;;4884741;29;20064;-80
2023/04/22 13:01:38;;;;;;;9.07;1.42;;;19.90;47.20;;;;;;4883952;29;20403;-81
2023/04/22 13:04:04;;;;;;;1.80;1.05;;;20.40;47.20;;;;;;4886271;29;20069;-81
2023/04/22 13:06:31;;;;;;;3.92;1.33;;;20.60;46.20;;;;;;4863482;29;20033;-81
2023/04/22 13:08:57;;;;;;;3.70;0.82;;;20.60;43.40;;;;;;4860501;29;20120;-81
2023/04/22 13:11:23;;;;;;;3.22;0.88;;;20.30;42.50;;;;;;4880281;29;20029;-80
2023/04/22 13:13:49;;;;;;;2.45;0.82;;;20.30;43.30;;;;;;4872966;29;20038;-80
2023/04/22 13:16:15;;;;;;;3.25;0.70;;;20.10;43.80;;;;;;4879058;29;20097;-80
2023/04/22 13:18:41;;;;;;;3.63;0.77;;;20.10;44.60;;;;;;4876875;29;20030;-80
2023/04/22 13:21:07;;;;;;;6.65;1.15;;;19.90;44.20;;;;;;4863589;29;20499;-80
2023/04/22 13:23:32;;;;;;;2.38;0.80;;;19.80;44.60;;;;;;4876031;29;20093;-80
2023/04/22 13:25:58;;;;;;;2.88;0.90;;;19.80;45.40;;;;;;4884123;29;20029;-80
2023/04/22 13:28:24;;;;;;;3.88;1.02;;;19.80;45.90;;;;;;4889313;29;20060;-80
2023/04/22 13:30:50;;;;;;;5.60;1.27;;;19.80;45.90;;;;;;4885760;29;20127;-80
2023/04/22 13:33:16;;;;;;;2.78;1.05;;;19.60;45.80;;;;;;4902290;29;20049;-79
2023/04/22 13:35:42;;;;;;;4.68;1.00;;;19.30;46.10;;;;;;4896396;29;20103;-80
2023/04/22 13:38:08;;;;;;;4.18;0.82;;;19.30;47.20;;;;;;4899004;29;20087;-79
2023/04/22 13:40:33;;;;;;;4.30;1.30;;;19.20;46.70;;;;;;4909351;29;20524;-79
2023/04/22 13:42:59;;;;;;;2.15;0.75;;;19.10;46.70;;;;;;4906492;29;20514;-80
2023/04/22 13:45:25;;;;;;;5.00;0.77;;;19.10;47.30;;;;;;4914595;29;20037;-80
2023/04/22 13:47:52;;;;;;;1.50;0.60;;;18.90;47.30;;;;;;4902121;29;20036;-80
2023/04/22 13:50:17;;;;;;;5.30;1.10;;;19.00;47.40;;;;;;4897842;29;20035;-81
2023/04/22 13:52:43;;;;;;;2.72;0.63;;;19.00;47.40;;;;;;4890825;29;20092;-82
2023/04/22 13:55:09;;;;;;;4.30;0.73;;;19.00;47.10;;;;;;4894027;29;20107;-81
2023/04/22 13:57:35;;;;;;;3.45;1.17;;;19.10;47.40;;;;;;4907906;29;20035;-81
2023/04/22 14:00:00;;;;;;;5.20;1.10;;;19.10;46.80;;;;;;4897038;29;20425;-81
2023/04/22 14:02:26;;;;;;;3.85;0.80;;;19.00;46.60;;;;;;4901709;29;20040;-82
2023/04/22 14:04:52;;;;;;;1.75;0.82;;;19.00;48.90;;;;;;4895007;29;20033;-81
2023/04/22 14:07:18;;;;;;;3.95;0.98;;;18.90;50.60;;;;;;4901946;29;20032;-78
2023/04/22 14:09:43;;;;;;;4.50;1.25;;;19.00;50.40;;;;;;4901633;29;20036;-84
2023/04/22 14:12:10;;;;;;;3.70;2.00;;;19.10;50.20;;;;;;4900835;29;20032;-78
2023/04/22 14:14:36;;;;;;;3.95;0.95;;;19.10;50.50;;;;;;4897480;29;20037;-82
2023/04/22 14:17:02;;;;;;;7.07;1.20;;;19.00;51.00;;;;;;4900979;29;20036;-79
2023/04/22 14:19:29;;;;;;;2.45;1.33;;;19.00;50.80;;;;;;4896231;29;20107;-81
2023/04/22 14:21:55;;;;;;;2.42;0.98;;;19.30;51.70;;;;;;4901315;29;20028;-80
2023/04/22 14:24:22;;;;;;;4.80;1.05;;;19.60;51.20;;;;;;4914690;29;20028;-83
2023/04/22 14:26:50;;;;;;;5.22;1.05;;;20.00;50.50;;;;;;4905446;29;20024;-85
2023/04/22 14:29:15;;;;;;;12.50;1.33;;;20.30;47.50;;;;;;4902029;29;20025;-87
2023/04/22 14:31:41;;;;;;;6.63;0.88;;;20.40;45.60;;;;;;4887865;29;20060;-82
2023/04/22 14:34:07;;;;;;;3.05;0.82;;;20.30;45.50;;;;;;4903596;29;20404;-82
2023/04/22 14:36:32;;;;;;;2.53;0.68;;;20.00;45.80;;;;;;4900187;29;20496;-82
2023/04/22 14:38:58;;;;;;;6.05;0.70;;;20.00;46.70;;;;;;4887857;29;20469;-82
2023/04/22 14:41:24;;;;;;;2.35;0.73;;;20.00;47.00;;;;;;4894191;29;20044;-84
2023/04/22 14:43:49;;;;;;;5.90;1.33;;;20.00;46.20;;;;;;4897998;29;20531;-83
2023/04/22 14:46:15;;;;;;;4.85;1.08;;;20.00;46.60;;;;;;4894238;29;20037;-81
2023/04/22 14:48:41;;;;;;;11.52;1.50;;;19.90;46.40;;;;;;4893514;29;20204;-81
2023/04/22 14:51:06;;;;;;;4.00;0.80;;;19.80;46.80;;;;;;4897051;29;20111;-82
2023/04/22 14:53:33;;;;;;;3.78;0.70;;;19.50;47.30;;;;;;4899507;29;20040;-80
2023/04/22 14:55:58;;;;;;;1.83;0.55;;;19.30;48.00;;;;;;4897807;29;20450;-80
2023/04/22 14:58:25;;;;;;;3.50;1.10;;;19.20;48.50;;;;;;4908911;29;20095;-80
2023/04/22 15:00:51;;;;;;;4.45;1.13;;;19.20;48.60;;;;;;4900263;29;20109;-81
2023/04/22 15:03:17;;;;;;;4.88;0.98;;;19.50;48.50;;;;;;4910282;29;20138;-81
2023/04/22 15:05:47;;;;;;;3.72;0.65;;;19.90;48.40;;;;;;4897012;29;20490;-81
2023/04/22 15:08:13;;;;;;;;;;;20.20;48.80;;;;;;4898315;29;20032;-80
2023/04/22 15:10:39;;;;;;;5.95;0.93;;;20.40;47.20;;;;;;4889180;29;20736;-81
2023/04/22 15:13:05;;;;;;;1.88;0.73;;;20.50;47.30;;;;;;4907995;29;20037;-81
2023/04/22 15:15:31;;;;;;;2.17;0.50;;;20.50;45.30;;;;;;4889483;29;20039;-81
2023/04/22 15:17:56;;;;;;;3.50;0.90;;;20.50;45.00;;;;;;4896196;29;20033;-81
2023/04/22 15:20:22;;;;;;;1.95;0.55;;;20.50;45.40;;;;;;4897239;29;20036;-81
2023/04/22 15:22:48;;;;;;;2.63;0.40;;;20.30;45.20;;;;;;4899564;29;20032;-81
2023/04/22 15:25:13;;;;;;;2.03;0.43;;;20.30;45.10;;;;;;4898078;29;20028;-81
2023/04/22 15:27:40;;;;;;;2.97;0.55;;;20.30;44.60;;;;;;4899923;29;20036;-80
2023/04/22 15:30:06;;;;;;;3.85;0.60;;;20.10;44.50;;;;;;4899952;29;20068;-80
2023/04/22 15:32:32;;;;;;;2.85;0.55;;;19.90;45.40;;;;;;4883654;29;20053;-80
2023/04/22 15:34:58;;;;;;;4.53;0.85;;;19.80;45.70;;;;;;4880851;29;20404;-81
2023/04/22 15:37:23;;;;;;;4.05;0.60;;;19.90;46.40;;;;;;4883727;29;20071;-81
2023/04/22 15:39:49;;;;;;;3.20;0.68;;;20.00;46.70;;;;;;4881347;29;20117;-80
2023/04/22 15:42:15;;;;;;;4.32;0.55;;;20.00;46.80;;;;;;4881341;29;20492;-81
2023/04/22 15:44:40;;;;;;;3.90;0.80;;;20.00;46.50;;;;;;4877168;29;20085;-81
2023/04/22 15:47:08;;;;;;;6.50;0.90;;;19.90;46.80;;;;;;4859959;29;20029;-81
2023/04/22 15:49:35;;;;;;;3.78;0.55;;;19.80;47.00;;;;;;4861835;29;21814;-81
2023/04/22 15:52:01;;;;;;;4.63;0.60;;;20.00;46.90;;;;;;4861774;29;20085;-80
2023/04/22 15:54:27;;;;;;;6.40;0.75;;;19.90;47.00;;;;;;4884184;29;20506;-82
2023/04/22 15:56:52;;;;;;;5.20;0.75;;;19.90;48.00;;;;;;4880423;29;20076;-81
2023/04/22 15:59:18;;;;;;;3.65;0.70;;;19.80;48.40;;;;;;4877375;29;20116;-82
2023/04/22 16:01:44;;;;;;;5.22;0.80;;;19.70;48.60;;;;;;4872760;29;20139;-80
2023/04/22 16:04:09;;;;;;;6.60;0.80;;;19.60;48.90;;;;;;4880471;29;20164;-80
2023/04/22 16:06:36;;;;;;;3.53;1.00;;;19.70;49.50;;;;;;4863970;29;20044;-81
2023/04/22 16:09:03;;;;;;;4.40;1.00;;;19.70;49.70;;;;;;4860814;29;20162;-78
2023/04/22 16:11:29;;;;;;;3.92;1.10;;;19.50;50.40;;;;;;4856767;29;20392;-84
2023/04/22 16:13:54;;;;;;;4.55;0.88;;;19.50;50.80;;;;;;4855527;29;20129;-84
2023/04/22 16:16:21;;;;;;;7.90;3.25;;;19.60;50.80;;;;;;4853767;29;20793;-84
2023/04/22 16:18:47;;;;;;;8.85;1.45;;;19.70;50.80;;;;;;4854992;29;20037;-84
2023/04/22 16:21:13;;;;;;;5.47;1.00;;;19.80;51.20;;;;;;4854639;29;20393;-85
2023/04/22 16:23:38;;;;;;;4.50;1.02;;;19.80;50.40;;;;;;4877831;29;20097;-85
2023/04/22 16:26:05;;;;;;;11.25;2.08;;;19.70;50.80;;;;;;4872526;29;20378;-85
2023/04/22 16:28:31;;;;;;;7.57;1.13;;;19.70;51.00;;;;;;4856935;29;20044;-85
2023/04/22 16:30:56;;;;;;;5.63;1.38;;;19.60;51.40;;;;;;4868765;29;20503;-85
2023/04/22 16:33:23;;;;;;;6.75;1.15;;;19.50;51.90;;;;;;4896039;29;20108;-84
2023/04/22 16:35:48;;;;;;;5.43;1.35;;;19.50;52.40;;;;;;4893233;29;20028;-83
2023/04/22 16:38:14;;;;;;;8.35;1.38;;;19.40;51.60;;;;;;4894585;29;20049;-85
2023/04/22 16:40:40;;;;;;;4.00;0.90;;;19.30;51.70;;;;;;4891174;29;20072;-85
2023/04/22 16:43:06;;;;;;;5.90;1.80;;;19.20;52.30;;;;;;4893200;29;20044;-85
2023/04/22 16:45:32;;;;;;;4.22;1.00;;;19.10;52.20;;;;;;4891092;29;20024;-84
2023/04/22 16:47:57;;;;;;;3.03;0.98;;;19.10;52.20;;;;;;4893874;29;20032;-85
2023/04/22 16:50:23;;;;;;;6.72;1.13;;;19.20;52.40;;;;;;4897698;29;20039;-83
2023/04/22 16:52:49;;;;;;;7.05;1.35;;;19.30;52.30;;;;;;4898532;29;20028;-81
2023/04/22 16:55:15;;;;;;;7.53;1.25;;;19.30;52.20;;;;;;4896875;29;20060;-86
2023/04/22 16:57:41;;;;;;;3.72;1.15;;;19.40;52.40;;;;;;4890771;29;20035;-84
2023/04/22 17:00:07;;;;;;;11.90;1.15;;;19.20;51.80;;;;;;4898353;29;20061;-78
2023/04/22 17:02:33;;;;;;;4.78;1.20;;;19.20;51.90;;;;;;4890277;29;20036;-77
2023/04/22 17:05:03;;;;;;;6.85;1.30;;;19.10;52.30;;;;;;4892774;29;20029;-82
2023/04/22 17:07:28;;;;;;;9.13;1.25;;;19.00;52.40;;;;;;4898329;29;20078;-79
2023/04/22 17:09:54;;;;;;;2.70;0.82;;;18.80;52.60;;;;;;4889662;29;20036;-84
2023/04/22 17:12:20;;;;;;;11.23;1.20;;;18.60;53.10;;;;;;4894399;29;20139;-84